sensor_id;sensor_type;location;lat;lon;timestamp;temperature;humidity
7196;DHT22;3639;51.308;5.624;2023-03-04T00:01:46;5.50;99.90
7196;DHT22;3639;51.308;5.624;2023-03-04T00:04:12;5.50;99.90
7196;DHT22;3639;51.308;5.624;2023-03-04T00:06:38;5.40;99.90
7196;DHT22;3639;51.308;5.624;2023-03-04T00:09:04;5.30;99.90
7196;DHT22;3639;51.308;5.624;2023-03-04T00:11:31;5.30;99.90
7196;DHT22;3639;51.308;5.624;2023-03-04T00:13:57;5.30;99.90
7196;DHT22;3639;51.308;5.624;2023-03-04T00:16:23;5.40;99.90
7196;DHT22;3639;51.308;5.624;2023-03-04T00:18:52;5.30;99.90
7196;DHT22;3639;51.308;5.624;2023-03-04T00:21:18;5.40;99.90
7196;DHT22;3639;51.308;5.624;2023-03-04T00:23:43;5.50;99.90
7196;DHT22;3639;51.308;5.624;2023-03-04T00:26:09;5.50;99.90
7196;DHT22;3639;51.308;5.624;2023-03-04T00:28:35;5.50;99.90
7196;DHT22;3639;51.308;5.624;2023-03-04T00:31:00;5.50;99.90
7196;DHT22;3639;51.308;5.624;2023-03-04T00:33:26;5.50;99.90
7196;DHT22;3639;51.308;5.624;2023-03-04T00:35:52;5.50;99.90
7196;DHT22;3639;51.308;5.624;2023-03-04T00:38:17;5.60;99.90
7196;DHT22;3639;51.308;5.624;2023-03-04T00:40:43;5.60;99.90
7196;DHT22;3639;51.308;5.624;2023-03-04T00:43:08;5.60;99.90
7196;DHT22;3639;51.308;5.624;2023-03-04T00:45:34;5.50;99.90
7196;DHT22;3639;51.308;5.624;2023-03-04T00:48:00;5.50;99.90
7196;DHT22;3639;51.308;5.624;2023-03-04T00:50:25;5.50;99.90
7196;DHT22;3639;51.308;5.624;2023-03-04T00:52:51;5.50;99.90
7196;DHT22;3639;51.308;5.624;2023-03-04T00:55:17;5.50;99.90
7196;DHT22;3639;51.308;5.624;2023-03-04T00:57:42;5.50;99.90
7196;DHT22;3639;51.308;5.624;2023-03-04T01:00:09;5.40;99.90
7196;DHT22;3639;51.308;5.624;2023-03-04T01:02:35;5.40;99.90
7196;DHT22;3639;51.308;5.624;2023-03-04T01:05:00;5.40;99.90
7196;DHT22;3639;51.308;5.624;2023-03-04T01:07:26;5.40;99.90
7196;DHT22;3639;51.308;5.624;2023-03-04T01:09:51;5.30;99.90
7196;DHT22;3639;51.308;5.624;2023-03-04T01:12:17;5.30;99.90
7196;DHT22;3639;51.308;5.624;2023-03-04T01:14:43;5.30;99.90
7196;DHT22;3639;51.308;5.624;2023-03-04T01:17:08;5.30;99.90
7196;DHT22;3639;51.308;5.624;2023-03-04T01:19:36;5.30;99.90
7196;DHT22;3639;51.308;5.624;2023-03-04T01:22:02;5.30;99.90
7196;DHT22;3639;51.308;5.624;2023-03-04T01:24:29;5.40;99.90
7196;DHT22;3639;51.308;5.624;2023-03-04T01:26:55;5.50;99.90
7196;DHT22;3639;51.308;5.624;2023-03-04T01:29:21;5.50;99.90
7196;DHT22;3639;51.308;5.624;2023-03-04T01:31:46;5.50;99.90
7196;DHT22;3639;51.308;5.624;2023-03-04T01:34:12;5.50;99.90
7196;DHT22;3639;51.308;5.624;2023-03-04T01:36:37;5.50;99.90
7196;DHT22;3639;51.308;5.624;2023-03-04T01:39:04;5.40;99.90
7196;DHT22;3639;51.308;5.624;2023-03-04T01:41:30;5.40;99.90
7196;DHT22;3639;51.308;5.624;2023-03-04T01:43:57;5.40;99.90
7196;DHT22;3639;51.308;5.624;2023-03-04T01:46:25;5.40;99.90
7196;DHT22;3639;51.308;5.624;2023-03-04T01:48:51;5.40;99.90
7196;DHT22;3639;51.308;5.624;2023-03-04T01:51:18;5.40;99.90
7196;DHT22;3639;51.308;5.624;2023-03-04T01:53:46;5.40;99.90
7196;DHT22;3639;51.308;5.624;2023-03-04T02:01:38;5.50;99.90
7196;DHT22;3639;51.308;5.624;2023-03-04T02:04:04;5.50;99.90
7196;DHT22;3639;51.308;5.624;2023-03-04T02:06:31;5.50;99.90
7196;DHT22;3639;51.308;5.624;2023-03-04T02:08:57;5.50;99.90
7196;DHT22;3639;51.308;5.624;2023-03-04T02:11:22;5.50;99.90
7196;DHT22;3639;51.308;5.624;2023-03-04T02:13:48;5.40;99.90
7196;DHT22;3639;51.308;5.624;2023-03-04T02:16:14;5.40;99.90
7196;DHT22;3639;51.308;5.624;2023-03-04T02:18:40;5.40;99.90
7196;DHT22;3639;51.308;5.624;2023-03-04T02:21:20;5.40;99.90
7196;DHT22;3639;51.308;5.624;2023-03-04T02:26:34;5.50;99.90
7196;DHT22;3639;51.308;5.624;2023-03-04T02:29:01;5.50;99.90
7196;DHT22;3639;51.308;5.624;2023-03-04T02:31:34;5.40;99.90
7196;DHT22;3639;51.308;5.624;2023-03-04T02:34:13;5.40;99.90
7196;DHT22;3639;51.308;5.624;2023-03-04T02:36:39;5.40;99.90
7196;DHT22;3639;51.308;5.624;2023-03-04T02:39:29;5.40;99.90
7196;DHT22;3639;51.308;5.624;2023-03-04T02:41:56;5.50;99.90
7196;DHT22;3639;51.308;5.624;2023-03-04T02:44:28;5.60;99.90
7196;DHT22;3639;51.308;5.624;2023-03-04T02:46:55;5.50;99.90
7196;DHT22;3639;51.308;5.624;2023-03-04T02:49:23;5.50;99.90
7196;DHT22;3639;51.308;5.624;2023-03-04T02:51:59;5.40;99.90
7196;DHT22;3639;51.308;5.624;2023-03-04T02:54:25;5.40;99.90
7196;DHT22;3639;51.308;5.624;2023-03-04T02:56:53;5.40;99.90
7196;DHT22;3639;51.308;5.624;2023-03-04T02:59:20;5.30;99.90
7196;DHT22;3639;51.308;5.624;2023-03-04T03:01:46;5.30;99.90
7196;DHT22;3639;51.308;5.624;2023-03-04T03:04:12;5.30;99.90
7196;DHT22;3639;51.308;5.624;2023-03-04T03:06:39;5.30;99.90
7196;DHT22;3639;51.308;5.624;2023-03-04T03:09:04;5.30;99.90
7196;DHT22;3639;51.308;5.624;2023-03-04T03:11:30;5.30;99.90
7196;DHT22;3639;51.308;5.624;2023-03-04T03:13:56;5.30;99.90
7196;DHT22;3639;51.308;5.624;2023-03-04T03:16:22;5.20;99.90
7196;DHT22;3639;51.308;5.624;2023-03-04T03:18:48;5.20;99.90
7196;DHT22;3639;51.308;5.624;2023-03-04T03:21:13;5.30;99.90
7196;DHT22;3639;51.308;5.624;2023-03-04T03:23:39;5.40;99.90
7196;DHT22;3639;51.308;5.624;2023-03-04T03:26:05;5.30;99.90
7196;DHT22;3639;51.308;5.624;2023-03-04T03:28:30;5.40;99.90
7196;DHT22;3639;51.308;5.624;2023-03-04T03:30:56;5.40;99.90
7196;DHT22;3639;51.308;5.624;2023-03-04T03:33:22;5.40;99.90
7196;DHT22;3639;51.308;5.624;2023-03-04T03:35:48;5.40;99.90
7196;DHT22;3639;51.308;5.624;2023-03-04T03:38:13;5.40;99.90
7196;DHT22;3639;51.308;5.624;2023-03-04T03:40:39;5.40;99.90
7196;DHT22;3639;51.308;5.624;2023-03-04T03:43:05;5.30;99.90
7196;DHT22;3639;51.308;5.624;2023-03-04T03:45:31;5.40;99.90
7196;DHT22;3639;51.308;5.624;2023-03-04T03:47:56;5.30;99.90
7196;DHT22;3639;51.308;5.624;2023-03-04T03:50:22;5.30;99.90
7196;DHT22;3639;51.308;5.624;2023-03-04T03:52:48;5.40;99.90
7196;DHT22;3639;51.308;5.624;2023-03-04T03:55:13;5.30;99.90
7196;DHT22;3639;51.308;5.624;2023-03-04T03:57:39;5.30;99.90
7196;DHT22;3639;51.308;5.624;2023-03-04T04:00:06;5.40;99.90
7196;DHT22;3639;51.308;5.624;2023-03-04T04:02:32;5.30;99.90
7196;DHT22;3639;51.308;5.624;2023-03-04T04:04:57;5.30;99.90
7196;DHT22;3639;51.308;5.624;2023-03-04T04:07:23;5.20;99.90
7196;DHT22;3639;51.308;5.624;2023-03-04T04:09:49;5.20;99.90
7196;DHT22;3639;51.308;5.624;2023-03-04T04:12:15;5.30;99.90
7196;DHT22;3639;51.308;5.624;2023-03-04T04:14:42;5.30;99.90
7196;DHT22;3639;51.308;5.624;2023-03-04T04:17:08;5.30;99.90
7196;DHT22;3639;51.308;5.624;2023-03-04T04:19:33;5.30;99.90
7196;DHT22;3639;51.308;5.624;2023-03-04T04:21:59;5.30;99.90
7196;DHT22;3639;51.308;5.624;2023-03-04T04:24:25;5.30;99.90
7196;DHT22;3639;51.308;5.624;2023-03-04T04:26:51;5.30;99.90
7196;DHT22;3639;51.308;5.624;2023-03-04T04:29:17;5.30;99.90
7196;DHT22;3639;51.308;5.624;2023-03-04T04:31:42;5.30;99.90
7196;DHT22;3639;51.308;5.624;2023-03-04T04:34:08;5.30;99.90
7196;DHT22;3639;51.308;5.624;2023-03-04T04:36:34;5.40;99.90
7196;DHT22;3639;51.308;5.624;2023-03-04T04:39:00;5.40;99.90
7196;DHT22;3639;51.308;5.624;2023-03-04T04:41:28;5.30;99.90
7196;DHT22;3639;51.308;5.624;2023-03-04T04:43:56;5.30;99.90
7196;DHT22;3639;51.308;5.624;2023-03-04T04:46:22;5.40;99.90
7196;DHT22;3639;51.308;5.624;2023-03-04T04:48:48;5.40;99.90
7196;DHT22;3639;51.308;5.624;2023-03-04T04:51:14;5.40;99.90
7196;DHT22;3639;51.308;5.624;2023-03-04T04:53:40;5.30;99.90
7196;DHT22;3639;51.308;5.624;2023-03-04T04:56:17;5.30;99.90
7196;DHT22;3639;51.308;5.624;2023-03-04T04:58:43;5.30;99.90
7196;DHT22;3639;51.308;5.624;2023-03-04T05:01:09;5.30;99.90
7196;DHT22;3639;51.308;5.624;2023-03-04T05:03:36;5.20;99.90
7196;DHT22;3639;51.308;5.624;2023-03-04T05:06:03;5.20;99.90
7196;DHT22;3639;51.308;5.624;2023-03-04T05:08:29;5.20;99.90
7196;DHT22;3639;51.308;5.624;2023-03-04T05:10:55;5.30;99.90
7196;DHT22;3639;51.308;5.624;2023-03-04T05:13:20;5.30;99.90
7196;DHT22;3639;51.308;5.624;2023-03-04T05:15:46;5.20;99.90
7196;DHT22;3639;51.308;5.624;2023-03-04T05:18:12;5.20;99.90
7196;DHT22;3639;51.308;5.624;2023-03-04T05:20:38;5.30;99.90
7196;DHT22;3639;51.308;5.624;2023-03-04T05:23:03;5.30;99.90
7196;DHT22;3639;51.308;5.624;2023-03-04T05:25:29;5.30;99.90
7196;DHT22;3639;51.308;5.624;2023-03-04T05:27:55;5.40;99.90
7196;DHT22;3639;51.308;5.624;2023-03-04T05:30:20;5.30;99.90
7196;DHT22;3639;51.308;5.624;2023-03-04T05:32:46;5.30;99.90
7196;DHT22;3639;51.308;5.624;2023-03-04T05:35:11;5.30;99.90
7196;DHT22;3639;51.308;5.624;2023-03-04T05:37:37;5.20;99.90
7196;DHT22;3639;51.308;5.624;2023-03-04T05:40:03;5.30;99.90
7196;DHT22;3639;51.308;5.624;2023-03-04T05:42:30;5.30;99.90
7196;DHT22;3639;51.308;5.624;2023-03-04T05:44:55;5.30;99.90
7196;DHT22;3639;51.308;5.624;2023-03-04T05:47:21;5.20;99.90
7196;DHT22;3639;51.308;5.624;2023-03-04T05:49:47;5.30;99.90
7196;DHT22;3639;51.308;5.624;2023-03-04T05:52:12;5.20;99.90
7196;DHT22;3639;51.308;5.624;2023-03-04T05:54:38;5.30;99.90
7196;DHT22;3639;51.308;5.624;2023-03-04T05:57:03;5.30;99.90
7196;DHT22;3639;51.308;5.624;2023-03-04T05:59:29;5.30;99.90
7196;DHT22;3639;51.308;5.624;2023-03-04T06:01:55;5.30;99.90
7196;DHT22;3639;51.308;5.624;2023-03-04T06:04:21;5.30;99.90
7196;DHT22;3639;51.308;5.624;2023-03-04T06:06:46;5.30;99.90
7196;DHT22;3639;51.308;5.624;2023-03-04T06:09:13;5.30;99.90
7196;DHT22;3639;51.308;5.624;2023-03-04T06:11:39;5.30;99.90
7196;DHT22;3639;51.308;5.624;2023-03-04T06:14:04;5.30;99.90
7196;DHT22;3639;51.308;5.624;2023-03-04T06:16:30;5.30;99.90
7196;DHT22;3639;51.308;5.624;2023-03-04T06:18:56;5.30;99.90
7196;DHT22;3639;51.308;5.624;2023-03-04T06:21:21;5.30;99.90
7196;DHT22;3639;51.308;5.624;2023-03-04T06:23:47;5.40;99.90
7196;DHT22;3639;51.308;5.624;2023-03-04T06:26:13;5.40;99.90
7196;DHT22;3639;51.308;5.624;2023-03-04T06:28:43;5.30;99.90
7196;DHT22;3639;51.308;5.624;2023-03-04T06:31:09;5.30;99.90
7196;DHT22;3639;51.308;5.624;2023-03-04T06:33:35;5.20;99.90
7196;DHT22;3639;51.308;5.624;2023-03-04T06:36:01;5.20;99.90
7196;DHT22;3639;51.308;5.624;2023-03-04T06:38:27;5.20;99.90
7196;DHT22;3639;51.308;5.624;2023-03-04T06:40:53;5.20;99.90
7196;DHT22;3639;51.308;5.624;2023-03-04T06:43:19;5.30;99.90
7196;DHT22;3639;51.308;5.624;2023-03-04T06:45:45;5.30;99.90
7196;DHT22;3639;51.308;5.624;2023-03-04T06:48:11;5.30;99.90
7196;DHT22;3639;51.308;5.624;2023-03-04T06:50:39;5.30;99.90
7196;DHT22;3639;51.308;5.624;2023-03-04T06:53:04;5.30;99.90
7196;DHT22;3639;51.308;5.624;2023-03-04T06:55:30;5.30;99.90
7196;DHT22;3639;51.308;5.624;2023-03-04T06:57:55;5.40;99.90
7196;DHT22;3639;51.308;5.624;2023-03-04T07:00:21;5.40;99.90
7196;DHT22;3639;51.308;5.624;2023-03-04T07:02:48;5.40;99.90
7196;DHT22;3639;51.308;5.624;2023-03-04T07:05:14;5.40;99.90
7196;DHT22;3639;51.308;5.624;2023-03-04T07:07:41;5.50;99.90
7196;DHT22;3639;51.308;5.624;2023-03-04T07:10:07;5.40;99.90
7196;DHT22;3639;51.308;5.624;2023-03-04T07:12:34;5.40;99.90
7196;DHT22;3639;51.308;5.624;2023-03-04T07:15:00;5.30;99.90
7196;DHT22;3639;51.308;5.624;2023-03-04T07:17:26;5.40;99.90
7196;DHT22;3639;51.308;5.624;2023-03-04T07:19:51;5.40;99.90
7196;DHT22;3639;51.308;5.624;2023-03-04T07:22:17;5.50;99.90
7196;DHT22;3639;51.308;5.624;2023-03-04T07:24:42;5.40;99.90
7196;DHT22;3639;51.308;5.624;2023-03-04T07:27:08;5.40;99.90
7196;DHT22;3639;51.308;5.624;2023-03-04T07:29:34;5.40;99.90
7196;DHT22;3639;51.308;5.624;2023-03-04T07:31:59;5.40;99.90
7196;DHT22;3639;51.308;5.624;2023-03-04T07:34:25;5.40;99.90
7196;DHT22;3639;51.308;5.624;2023-03-04T07:36:50;5.40;99.90
7196;DHT22;3639;51.308;5.624;2023-03-04T07:39:16;5.40;99.90
7196;DHT22;3639;51.308;5.624;2023-03-04T07:41:42;5.40;99.90
7196;DHT22;3639;51.308;5.624;2023-03-04T07:44:09;5.50;99.90
7196;DHT22;3639;51.308;5.624;2023-03-04T07:46:35;5.50;99.90
7196;DHT22;3639;51.308;5.624;2023-03-04T07:49:01;5.50;99.90
7196;DHT22;3639;51.308;5.624;2023-03-04T07:51:27;5.60;99.90
7196;DHT22;3639;51.308;5.624;2023-03-04T07:53:56;5.60;99.90
7196;DHT22;3639;51.308;5.624;2023-03-04T07:56:24;5.60;99.90
7196;DHT22;3639;51.308;5.624;2023-03-04T07:58:50;5.60;99.90
7196;DHT22;3639;51.308;5.624;2023-03-04T08:03:49;5.60;99.90
7196;DHT22;3639;51.308;5.624;2023-03-04T08:06:17;5.60;99.90
7196;DHT22;3639;51.308;5.624;2023-03-04T08:08:44;5.70;99.90
7196;DHT22;3639;51.308;5.624;2023-03-04T08:11:12;5.80;99.90
7196;DHT22;3639;51.308;5.624;2023-03-04T08:13:38;5.80;99.90
7196;DHT22;3639;51.308;5.624;2023-03-04T08:16:04;5.80;99.90
7196;DHT22;3639;51.308;5.624;2023-03-04T08:18:30;5.80;99.90
7196;DHT22;3639;51.308;5.624;2023-03-04T08:20:56;5.80;99.90
7196;DHT22;3639;51.308;5.624;2023-03-04T08:23:22;5.70;99.90
7196;DHT22;3639;51.308;5.624;2023-03-04T08:25:48;5.80;99.90
7196;DHT22;3639;51.308;5.624;2023-03-04T08:28:15;5.90;99.90
7196;DHT22;3639;51.308;5.624;2023-03-04T08:30:41;5.90;99.90
7196;DHT22;3639;51.308;5.624;2023-03-04T08:33:06;6.00;99.90
7196;DHT22;3639;51.308;5.624;2023-03-04T08:35:36;6.00;99.90
7196;DHT22;3639;51.308;5.624;2023-03-04T08:38:01;6.00;99.90
7196;DHT22;3639;51.308;5.624;2023-03-04T08:40:27;6.10;99.90
7196;DHT22;3639;51.308;5.624;2023-03-04T08:42:53;6.10;99.90
7196;DHT22;3639;51.308;5.624;2023-03-04T08:45:18;6.10;99.90
7196;DHT22;3639;51.308;5.624;2023-03-04T08:47:44;6.10;99.90
7196;DHT22;3639;51.308;5.624;2023-03-04T08:50:10;6.20;99.90
7196;DHT22;3639;51.308;5.624;2023-03-04T08:52:36;6.20;99.90
7196;DHT22;3639;51.308;5.624;2023-03-04T08:55:02;6.30;99.90
7196;DHT22;3639;51.308;5.624;2023-03-04T08:57:27;6.40;99.90
7196;DHT22;3639;51.308;5.624;2023-03-04T08:59:53;6.50;99.90
7196;DHT22;3639;51.308;5.624;2023-03-04T09:02:19;6.60;99.90
7196;DHT22;3639;51.308;5.624;2023-03-04T09:04:45;6.60;99.90
7196;DHT22;3639;51.308;5.624;2023-03-04T09:07:10;6.50;99.90
7196;DHT22;3639;51.308;5.624;2023-03-04T09:09:36;6.50;99.90
7196;DHT22;3639;51.308;5.624;2023-03-04T09:12:02;6.60;99.90
7196;DHT22;3639;51.308;5.624;2023-03-04T09:14:28;6.70;99.90
7196;DHT22;3639;51.308;5.624;2023-03-04T09:16:54;6.80;99.90
7196;DHT22;3639;51.308;5.624;2023-03-04T09:19:19;6.90;99.90
7196;DHT22;3639;51.308;5.624;2023-03-04T09:21:45;6.90;99.90
7196;DHT22;3639;51.308;5.624;2023-03-04T09:24:10;6.90;99.90
7196;DHT22;3639;51.308;5.624;2023-03-04T09:26:36;6.90;99.90
7196;DHT22;3639;51.308;5.624;2023-03-04T09:29:02;6.80;99.90
7196;DHT22;3639;51.308;5.624;2023-03-04T09:31:28;6.90;99.90
7196;DHT22;3639;51.308;5.624;2023-03-04T09:33:55;6.90;99.90
7196;DHT22;3639;51.308;5.624;2023-03-04T09:36:21;7.10;99.90
7196;DHT22;3639;51.308;5.624;2023-03-04T09:38:47;7.30;99.90
7196;DHT22;3639;51.308;5.624;2023-03-04T09:41:17;7.40;99.90
7196;DHT22;3639;51.308;5.624;2023-03-04T09:43:44;7.50;99.90
7196;DHT22;3639;51.308;5.624;2023-03-04T09:46:14;7.60;99.90
7196;DHT22;3639;51.308;5.624;2023-03-04T09:48:47;7.60;99.90
7196;DHT22;3639;51.308;5.624;2023-03-04T09:51:37;7.60;99.90
7196;DHT22;3639;51.308;5.624;2023-03-04T09:54:13;7.50;99.90
7196;DHT22;3639;51.308;5.624;2023-03-04T09:56:43;7.50;99.90
7196;DHT22;3639;51.308;5.624;2023-03-04T09:59:24;7.50;99.90
7196;DHT22;3639;51.308;5.624;2023-03-04T10:02:01;7.50;99.90
7196;DHT22;3639;51.308;5.624;2023-03-04T10:04:40;7.40;99.90
7196;DHT22;3639;51.308;5.624;2023-03-04T10:07:16;7.70;99.90
7196;DHT22;3639;51.308;5.624;2023-03-04T10:09:48;7.80;99.90
7196;DHT22;3639;51.308;5.624;2023-03-04T10:12:20;7.90;99.90
7196;DHT22;3639;51.308;5.624;2023-03-04T10:14:58;7.90;99.90
7196;DHT22;3639;51.308;5.624;2023-03-04T10:17:39;7.80;99.90
7196;DHT22;3639;51.308;5.624;2023-03-04T10:20:20;7.90;99.90
7196;DHT22;3639;51.308;5.624;2023-03-04T10:22:51;7.80;99.90
7196;DHT22;3639;51.308;5.624;2023-03-04T10:25:22;7.90;99.90
7196;DHT22;3639;51.308;5.624;2023-03-04T10:30:43;8.20;99.90
7196;DHT22;3639;51.308;5.624;2023-03-04T10:33:19;8.40;99.90
7196;DHT22;3639;51.308;5.624;2023-03-04T10:38:22;8.80;99.90
7196;DHT22;3639;51.308;5.624;2023-03-04T10:40:48;8.80;99.90
7196;DHT22;3639;51.308;5.624;2023-03-04T10:43:19;8.70;99.90
7196;DHT22;3639;51.308;5.624;2023-03-04T10:45:45;8.50;99.90
7196;DHT22;3639;51.308;5.624;2023-03-04T10:48:26;8.40;99.90
7196;DHT22;3639;51.308;5.624;2023-03-04T10:50:53;8.10;99.90
7196;DHT22;3639;51.308;5.624;2023-03-04T10:53:27;8.10;99.90
7196;DHT22;3639;51.308;5.624;2023-03-04T10:55:54;8.00;99.90
7196;DHT22;3639;51.308;5.624;2023-03-04T10:58:20;8.10;99.90
7196;DHT22;3639;51.308;5.624;2023-03-04T11:01:09;8.10;99.90
7196;DHT22;3639;51.308;5.624;2023-03-04T11:03:47;8.20;99.90
7196;DHT22;3639;51.308;5.624;2023-03-04T11:06:19;8.20;99.90
7196;DHT22;3639;51.308;5.624;2023-03-04T11:08:54;8.30;99.90
7196;DHT22;3639;51.308;5.624;2023-03-04T11:13:55;8.30;99.90
7196;DHT22;3639;51.308;5.624;2023-03-04T11:16:27;8.20;99.90
7196;DHT22;3639;51.308;5.624;2023-03-04T11:18:58;8.30;99.90
7196;DHT22;3639;51.308;5.624;2023-03-04T11:21:28;8.30;99.90
7196;DHT22;3639;51.308;5.624;2023-03-04T11:24:13;8.40;99.90
7196;DHT22;3639;51.308;5.624;2023-03-04T11:26:50;8.40;99.90
7196;DHT22;3639;51.308;5.624;2023-03-04T11:29:27;8.40;99.90
7196;DHT22;3639;51.308;5.624;2023-03-04T11:34:43;8.30;99.90
7196;DHT22;3639;51.308;5.624;2023-03-04T11:37:35;8.20;99.90
7196;DHT22;3639;51.308;5.624;2023-03-04T11:40:17;8.20;99.90
7196;DHT22;3639;51.308;5.624;2023-03-04T11:42:54;8.20;99.90
7196;DHT22;3639;51.308;5.624;2023-03-04T11:45:37;8.30;99.90
7196;DHT22;3639;51.308;5.624;2023-03-04T11:48:24;8.60;99.90
7196;DHT22;3639;51.308;5.624;2023-03-04T11:54:31;8.90;99.90
7196;DHT22;3639;51.308;5.624;2023-03-04T11:57:06;9.00;99.90
7196;DHT22;3639;51.308;5.624;2023-03-04T12:05:26;9.20;99.90
7196;DHT22;3639;51.308;5.624;2023-03-04T12:27:16;8.90;99.90
7196;DHT22;3639;51.308;5.624;2023-03-04T12:38:01;9.20;99.90
7196;DHT22;3639;51.308;5.624;2023-03-04T12:43:19;9.10;99.90
7196;DHT22;3639;51.308;5.624;2023-03-04T12:48:41;8.90;99.90
7196;DHT22;3639;51.308;5.624;2023-03-04T12:51:22;8.80;99.90
7196;DHT22;3639;51.308;5.624;2023-03-04T12:54:26;9.00;99.90
7196;DHT22;3639;51.308;5.624;2023-03-04T12:57:06;9.10;99.90
7196;DHT22;3639;51.308;5.624;2023-03-04T12:59:39;9.20;99.90
7196;DHT22;3639;51.308;5.624;2023-03-04T13:02:46;9.20;99.90
7196;DHT22;3639;51.308;5.624;2023-03-04T13:05:26;9.10;99.90
7196;DHT22;3639;51.308;5.624;2023-03-04T13:08:11;9.00;99.90
7196;DHT22;3639;51.308;5.624;2023-03-04T13:10:40;9.00;99.90
7196;DHT22;3639;51.308;5.624;2023-03-04T13:16:21;9.00;99.90
7196;DHT22;3639;51.308;5.624;2023-03-04T13:18:48;9.10;99.90
7196;DHT22;3639;51.308;5.624;2023-03-04T13:21:16;8.90;99.90
7196;DHT22;3639;51.308;5.624;2023-03-04T13:23:45;8.90;99.90
7196;DHT22;3639;51.308;5.624;2023-03-04T13:26:33;8.80;99.90
7196;DHT22;3639;51.308;5.624;2023-03-04T13:29:29;8.90;99.90
7196;DHT22;3639;51.308;5.624;2023-03-04T13:31:59;9.00;99.90
7196;DHT22;3639;51.308;5.624;2023-03-04T13:34:46;9.10;99.90
7196;DHT22;3639;51.308;5.624;2023-03-04T13:37:33;9.20;99.90
7196;DHT22;3639;51.308;5.624;2023-03-04T13:40:33;9.10;99.90
7196;DHT22;3639;51.308;5.624;2023-03-04T13:43:23;9.10;99.90
7196;DHT22;3639;51.308;5.624;2023-03-04T13:45:50;9.10;99.90
7196;DHT22;3639;51.308;5.624;2023-03-04T13:48:31;9.10;99.90
7196;DHT22;3639;51.308;5.624;2023-03-04T13:50:57;9.00;99.90
7196;DHT22;3639;51.308;5.624;2023-03-04T13:53:39;8.80;99.90
7196;DHT22;3639;51.308;5.624;2023-03-04T13:58:37;8.70;99.90
7196;DHT22;3639;51.308;5.624;2023-03-04T14:01:03;8.70;99.90
7196;DHT22;3639;51.308;5.624;2023-03-04T14:03:30;8.70;99.90
7196;DHT22;3639;51.308;5.624;2023-03-04T14:08:47;8.70;99.90
7196;DHT22;3639;51.308;5.624;2023-03-04T14:11:30;8.70;99.90
7196;DHT22;3639;51.308;5.624;2023-03-04T14:13:58;8.60;99.90
7196;DHT22;3639;51.308;5.624;2023-03-04T14:16:27;8.40;99.90
7196;DHT22;3639;51.308;5.624;2023-03-04T14:19:01;8.30;99.90
7196;DHT22;3639;51.308;5.624;2023-03-04T14:21:27;8.30;99.90
7196;DHT22;3639;51.308;5.624;2023-03-04T14:24:01;8.20;99.90
7196;DHT22;3639;51.308;5.624;2023-03-04T14:26:27;8.20;99.90
7196;DHT22;3639;51.308;5.624;2023-03-04T14:28:55;8.10;99.90
7196;DHT22;3639;51.308;5.624;2023-03-04T14:31:25;8.00;99.90
7196;DHT22;3639;51.308;5.624;2023-03-04T14:33:56;7.90;99.90
7196;DHT22;3639;51.308;5.624;2023-03-04T14:36:31;7.90;99.90
7196;DHT22;3639;51.308;5.624;2023-03-04T14:38:59;7.90;99.90
7196;DHT22;3639;51.308;5.624;2023-03-04T14:41:32;7.80;99.90
7196;DHT22;3639;51.308;5.624;2023-03-04T14:44:07;7.80;99.90
7196;DHT22;3639;51.308;5.624;2023-03-04T14:46:41;7.80;99.90
7196;DHT22;3639;51.308;5.624;2023-03-04T14:49:12;7.90;99.90
7196;DHT22;3639;51.308;5.624;2023-03-04T14:51:51;7.90;99.90
7196;DHT22;3639;51.308;5.624;2023-03-04T14:56:54;7.80;99.90
7196;DHT22;3639;51.308;5.624;2023-03-04T14:59:32;7.80;99.90
7196;DHT22;3639;51.308;5.624;2023-03-04T15:02:46;7.90;99.90
7196;DHT22;3639;51.308;5.624;2023-03-04T15:05:14;7.90;99.90
7196;DHT22;3639;51.308;5.624;2023-03-04T15:07:42;7.90;99.90
7196;DHT22;3639;51.308;5.624;2023-03-04T15:10:11;8.00;99.90
7196;DHT22;3639;51.308;5.624;2023-03-04T15:12:39;8.00;99.90
7196;DHT22;3639;51.308;5.624;2023-03-04T15:18:00;8.10;99.90
7196;DHT22;3639;51.308;5.624;2023-03-04T15:20:31;8.10;99.90
7196;DHT22;3639;51.308;5.624;2023-03-04T15:23:02;8.10;99.90
7196;DHT22;3639;51.308;5.624;2023-03-04T15:25:28;8.10;99.90
7196;DHT22;3639;51.308;5.624;2023-03-04T15:27:54;8.10;99.90
7196;DHT22;3639;51.308;5.624;2023-03-04T15:30:26;8.10;99.90
7196;DHT22;3639;51.308;5.624;2023-03-04T15:32:54;8.20;99.90
7196;DHT22;3639;51.308;5.624;2023-03-04T15:35:21;8.20;99.90
7196;DHT22;3639;51.308;5.624;2023-03-04T15:37:47;8.10;99.90
7196;DHT22;3639;51.308;5.624;2023-03-04T15:40:35;8.10;99.90
7196;DHT22;3639;51.308;5.624;2023-03-04T15:43:04;8.00;99.90
7196;DHT22;3639;51.308;5.624;2023-03-04T15:45:35;8.00;99.90
7196;DHT22;3639;51.308;5.624;2023-03-04T15:48:03;8.00;99.90
7196;DHT22;3639;51.308;5.624;2023-03-04T15:50:33;8.00;99.90
7196;DHT22;3639;51.308;5.624;2023-03-04T15:53:02;8.10;99.90
7196;DHT22;3639;51.308;5.624;2023-03-04T15:55:30;8.10;99.90
7196;DHT22;3639;51.308;5.624;2023-03-04T15:57:57;8.10;99.90
7196;DHT22;3639;51.308;5.624;2023-03-04T16:00:24;8.10;99.90
7196;DHT22;3639;51.308;5.624;2023-03-04T16:02:50;8.10;99.90
7196;DHT22;3639;51.308;5.624;2023-03-04T16:05:16;8.10;99.90
7196;DHT22;3639;51.308;5.624;2023-03-04T16:07:44;8.10;99.90
7196;DHT22;3639;51.308;5.624;2023-03-04T16:12:40;8.10;99.90
7196;DHT22;3639;51.308;5.624;2023-03-04T16:15:13;8.10;99.90
7196;DHT22;3639;51.308;5.624;2023-03-04T16:17:39;8.10;99.90
7196;DHT22;3639;51.308;5.624;2023-03-04T16:20:10;8.00;99.90
7196;DHT22;3639;51.308;5.624;2023-03-04T16:22:36;8.00;99.90
7196;DHT22;3639;51.308;5.624;2023-03-04T16:25:03;8.00;99.90
7196;DHT22;3639;51.308;5.624;2023-03-04T16:27:28;8.00;99.90
7196;DHT22;3639;51.308;5.624;2023-03-04T16:29:54;8.00;99.90
7196;DHT22;3639;51.308;5.624;2023-03-04T16:32:20;7.90;99.90
7196;DHT22;3639;51.308;5.624;2023-03-04T16:34:45;7.90;99.90
7196;DHT22;3639;51.308;5.624;2023-03-04T16:37:14;7.80;99.90
7196;DHT22;3639;51.308;5.624;2023-03-04T16:39:41;7.70;99.90
7196;DHT22;3639;51.308;5.624;2023-03-04T16:42:18;7.60;99.90
7196;DHT22;3639;51.308;5.624;2023-03-04T16:44:47;7.60;99.90
7196;DHT22;3639;51.308;5.624;2023-03-04T16:47:13;7.50;99.90
7196;DHT22;3639;51.308;5.624;2023-03-04T16:49:38;7.60;99.90
7196;DHT22;3639;51.308;5.624;2023-03-04T16:52:06;7.40;99.90
7196;DHT22;3639;51.308;5.624;2023-03-04T16:54:33;7.40;99.90
7196;DHT22;3639;51.308;5.624;2023-03-04T16:57:00;7.40;99.90
7196;DHT22;3639;51.308;5.624;2023-03-04T16:59:27;7.40;99.90
7196;DHT22;3639;51.308;5.624;2023-03-04T17:01:53;7.40;99.90
7196;DHT22;3639;51.308;5.624;2023-03-04T17:04:19;7.40;99.90
7196;DHT22;3639;51.308;5.624;2023-03-04T17:06:45;7.30;99.90
7196;DHT22;3639;51.308;5.624;2023-03-04T17:09:11;7.30;99.90
7196;DHT22;3639;51.308;5.624;2023-03-04T17:11:37;7.30;99.90
7196;DHT22;3639;51.308;5.624;2023-03-04T17:14:03;7.30;99.90
7196;DHT22;3639;51.308;5.624;2023-03-04T17:16:29;7.30;99.90
7196;DHT22;3639;51.308;5.624;2023-03-04T17:18:55;7.20;99.90
7196;DHT22;3639;51.308;5.624;2023-03-04T17:21:22;7.20;99.90
7196;DHT22;3639;51.308;5.624;2023-03-04T17:23:48;7.20;99.90
7196;DHT22;3639;51.308;5.624;2023-03-04T17:26:14;7.10;99.90
7196;DHT22;3639;51.308;5.624;2023-03-04T17:28:41;7.10;99.90
7196;DHT22;3639;51.308;5.624;2023-03-04T17:31:12;7.00;99.90
7196;DHT22;3639;51.308;5.624;2023-03-04T17:33:38;7.00;99.90
7196;DHT22;3639;51.308;5.624;2023-03-04T17:36:04;7.00;99.90
7196;DHT22;3639;51.308;5.624;2023-03-04T17:38:29;7.00;99.90
7196;DHT22;3639;51.308;5.624;2023-03-04T17:40:55;7.00;99.90
7196;DHT22;3639;51.308;5.624;2023-03-04T17:43:26;6.90;99.90
7196;DHT22;3639;51.308;5.624;2023-03-04T17:46:01;6.90;99.90
7196;DHT22;3639;51.308;5.624;2023-03-04T17:48:27;6.90;99.90